sensor_id;sensor_type;location;lat;lon;timestamp;P1;durP1;ratioP1;P2;durP2;ratioP2
6089;SDS011;3073;42.660;23.316;2022-11-13T00:01:05;9.73;;;5.73;;
6089;SDS011;3073;42.660;23.316;2022-11-13T00:03:47;8.10;;;5.30;;
6089;SDS011;3073;42.660;23.316;2022-11-13T00:06:14;6.67;;;5.00;;
6089;SDS011;3073;42.660;23.316;2022-11-13T00:08:42;9.43;;;5.17;;
6089;SDS011;3073;42.660;23.316;2022-11-13T00:11:09;7.53;;;4.63;;
6089;SDS011;3073;42.660;23.316;2022-11-13T00:13:39;10.43;;;5.30;;
6089;SDS011;3073;42.660;23.316;2022-11-13T00:16:10;8.10;;;5.33;;
6089;SDS011;3073;42.660;23.316;2022-11-13T00:18:37;8.37;;;5.50;;
6089;SDS011;3073;42.660;23.316;2022-11-13T00:21:06;10.87;;;6.00;;
6089;SDS011;3073;42.660;23.316;2022-11-13T00:23:34;13.80;;;6.60;;
6089;SDS011;3073;42.660;23.316;2022-11-13T00:26:05;9.60;;;5.87;;
6089;SDS011;3073;42.660;23.316;2022-11-13T00:28:33;8.23;;;6.07;;
6089;SDS011;3073;42.660;23.316;2022-11-13T00:31:00;10.50;;;6.20;;
6089;SDS011;3073;42.660;23.316;2022-11-13T00:33:30;10.40;;;6.70;;
6089;SDS011;3073;42.660;23.316;2022-11-13T00:36:02;9.83;;;6.53;;
6089;SDS011;3073;42.660;23.316;2022-11-13T00:38:29;12.63;;;7.17;;
6089;SDS011;3073;42.660;23.316;2022-11-13T00:40:58;11.20;;;7.23;;
6089;SDS011;3073;42.660;23.316;2022-11-13T00:43:26;9.43;;;6.10;;
6089;SDS011;3073;42.660;23.316;2022-11-13T00:45:55;9.37;;;6.80;;
6089;SDS011;3073;42.660;23.316;2022-11-13T00:48:22;11.90;;;7.00;;
6089;SDS011;3073;42.660;23.316;2022-11-13T00:50:50;11.17;;;7.23;;
6089;SDS011;3073;42.660;23.316;2022-11-13T00:53:17;12.63;;;7.30;;
6089;SDS011;3073;42.660;23.316;2022-11-13T00:55:44;10.93;;;7.23;;
6089;SDS011;3073;42.660;23.316;2022-11-13T00:58:12;14.00;;;8.30;;
6089;SDS011;3073;42.660;23.316;2022-11-13T01:00:40;12.60;;;8.60;;
6089;SDS011;3073;42.660;23.316;2022-11-13T01:03:09;11.77;;;8.23;;
6089;SDS011;3073;42.660;23.316;2022-11-13T01:05:36;12.50;;;8.63;;
6089;SDS011;3073;42.660;23.316;2022-11-13T01:08:05;13.33;;;8.60;;
6089;SDS011;3073;42.660;23.316;2022-11-13T01:10:33;15.23;;;9.37;;
6089;SDS011;3073;42.660;23.316;2022-11-13T01:13:06;11.40;;;8.37;;
6089;SDS011;3073;42.660;23.316;2022-11-13T01:15:33;16.23;;;8.97;;
6089;SDS011;3073;42.660;23.316;2022-11-13T01:18:00;13.30;;;9.03;;
6089;SDS011;3073;42.660;23.316;2022-11-13T01:20:27;15.57;;;9.50;;
6089;SDS011;3073;42.660;23.316;2022-11-13T01:22:54;12.60;;;8.73;;
6089;SDS011;3073;42.660;23.316;2022-11-13T01:25:22;11.90;;;8.47;;
6089;SDS011;3073;42.660;23.316;2022-11-13T01:27:49;11.87;;;7.77;;
6089;SDS011;3073;42.660;23.316;2022-11-13T01:30:16;12.27;;;8.40;;
6089;SDS011;3073;42.660;23.316;2022-11-13T01:32:43;12.83;;;7.73;;
6089;SDS011;3073;42.660;23.316;2022-11-13T01:35:11;10.97;;;8.03;;
6089;SDS011;3073;42.660;23.316;2022-11-13T01:37:38;12.10;;;8.57;;
6089;SDS011;3073;42.660;23.316;2022-11-13T01:40:05;12.67;;;9.33;;
6089;SDS011;3073;42.660;23.316;2022-11-13T01:42:34;10.40;;;8.57;;
6089;SDS011;3073;42.660;23.316;2022-11-13T01:45:01;13.73;;;8.23;;
6089;SDS011;3073;42.660;23.316;2022-11-13T01:47:29;13.30;;;9.20;;
6089;SDS011;3073;42.660;23.316;2022-11-13T01:49:58;11.67;;;8.23;;
6089;SDS011;3073;42.660;23.316;2022-11-13T01:52:28;13.10;;;9.40;;
6089;SDS011;3073;42.660;23.316;2022-11-13T01:54:59;11.47;;;8.43;;
6089;SDS011;3073;42.660;23.316;2022-11-13T01:57:31;14.20;;;9.20;;
6089;SDS011;3073;42.660;23.316;2022-11-13T02:00:03;13.23;;;9.77;;
6089;SDS011;3073;42.660;23.316;2022-11-13T02:02:33;11.27;;;8.33;;
6089;SDS011;3073;42.660;23.316;2022-11-13T02:05:00;14.80;;;9.20;;
6089;SDS011;3073;42.660;23.316;2022-11-13T02:07:28;12.70;;;8.90;;
6089;SDS011;3073;42.660;23.316;2022-11-13T02:09:55;15.30;;;9.57;;
6089;SDS011;3073;42.660;23.316;2022-11-13T02:12:25;14.23;;;9.27;;
6089;SDS011;3073;42.660;23.316;2022-11-13T02:14:57;12.97;;;9.30;;
6089;SDS011;3073;42.660;23.316;2022-11-13T02:17:27;15.30;;;10.07;;
6089;SDS011;3073;42.660;23.316;2022-11-13T02:19:58;17.40;;;9.10;;
6089;SDS011;3073;42.660;23.316;2022-11-13T02:22:30;13.83;;;8.53;;
6089;SDS011;3073;42.660;23.316;2022-11-13T02:25:03;11.30;;;8.40;;
6089;SDS011;3073;42.660;23.316;2022-11-13T02:27:33;18.07;;;8.30;;
6089;SDS011;3073;42.660;23.316;2022-11-13T02:30:10;11.50;;;8.20;;
6089;SDS011;3073;42.660;23.316;2022-11-13T02:32:41;12.60;;;8.70;;
6089;SDS011;3073;42.660;23.316;2022-11-13T02:35:10;12.30;;;8.77;;
6089;SDS011;3073;42.660;23.316;2022-11-13T02:37:38;11.67;;;8.87;;
6089;SDS011;3073;42.660;23.316;2022-11-13T02:40:07;13.27;;;8.77;;
6089;SDS011;3073;42.660;23.316;2022-11-13T02:42:34;12.57;;;9.10;;
6089;SDS011;3073;42.660;23.316;2022-11-13T02:45:01;16.33;;;9.87;;
6089;SDS011;3073;42.660;23.316;2022-11-13T02:47:30;15.27;;;10.40;;
6089;SDS011;3073;42.660;23.316;2022-11-13T02:49:58;17.93;;;9.03;;
6089;SDS011;3073;42.660;23.316;2022-11-13T02:52:25;10.90;;;8.20;;
6089;SDS011;3073;42.660;23.316;2022-11-13T02:54:52;13.67;;;9.40;;
6089;SDS011;3073;42.660;23.316;2022-11-13T02:57:20;13.73;;;9.17;;
6089;SDS011;3073;42.660;23.316;2022-11-13T02:59:47;14.33;;;8.43;;
6089;SDS011;3073;42.660;23.316;2022-11-13T03:02:14;14.20;;;9.13;;
6089;SDS011;3073;42.660;23.316;2022-11-13T03:04:41;14.63;;;9.67;;
6089;SDS011;3073;42.660;23.316;2022-11-13T03:07:09;14.80;;;9.67;;
6089;SDS011;3073;42.660;23.316;2022-11-13T03:09:36;14.50;;;9.70;;
6089;SDS011;3073;42.660;23.316;2022-11-13T03:12:03;13.40;;;10.43;;
6089;SDS011;3073;42.660;23.316;2022-11-13T03:14:33;21.07;;;11.90;;
6089;SDS011;3073;42.660;23.316;2022-11-13T03:17:00;15.63;;;10.90;;
6089;SDS011;3073;42.660;23.316;2022-11-13T03:19:28;26.00;;;10.70;;
6089;SDS011;3073;42.660;23.316;2022-11-13T03:21:54;17.10;;;11.37;;
6089;SDS011;3073;42.660;23.316;2022-11-13T03:24:21;18.33;;;10.33;;
6089;SDS011;3073;42.660;23.316;2022-11-13T03:26:48;15.47;;;10.50;;
6089;SDS011;3073;42.660;23.316;2022-11-13T03:29:15;17.60;;;11.30;;
6089;SDS011;3073;42.660;23.316;2022-11-13T03:31:43;18.83;;;10.43;;
6089;SDS011;3073;42.660;23.316;2022-11-13T03:34:10;14.17;;;10.00;;
6089;SDS011;3073;42.660;23.316;2022-11-13T03:36:37;13.10;;;9.80;;
6089;SDS011;3073;42.660;23.316;2022-11-13T03:39:04;18.73;;;11.10;;
6089;SDS011;3073;42.660;23.316;2022-11-13T03:41:31;17.73;;;10.83;;
6089;SDS011;3073;42.660;23.316;2022-11-13T03:43:58;17.30;;;11.37;;
6089;SDS011;3073;42.660;23.316;2022-11-13T03:46:25;16.10;;;10.40;;
6089;SDS011;3073;42.660;23.316;2022-11-13T03:48:53;15.33;;;10.50;;
6089;SDS011;3073;42.660;23.316;2022-11-13T03:51:20;20.87;;;11.80;;
6089;SDS011;3073;42.660;23.316;2022-11-13T03:53:49;18.80;;;12.10;;
6089;SDS011;3073;42.660;23.316;2022-11-13T03:56:16;15.40;;;11.10;;
6089;SDS011;3073;42.660;23.316;2022-11-13T03:58:43;21.50;;;11.63;;
6089;SDS011;3073;42.660;23.316;2022-11-13T04:01:10;18.27;;;11.03;;
6089;SDS011;3073;42.660;23.316;2022-11-13T04:03:37;18.10;;;11.03;;
6089;SDS011;3073;42.660;23.316;2022-11-13T04:06:05;16.87;;;11.20;;
6089;SDS011;3073;42.660;23.316;2022-11-13T04:08:33;20.40;;;12.70;;
6089;SDS011;3073;42.660;23.316;2022-11-13T04:11:04;21.07;;;10.27;;
6089;SDS011;3073;42.660;23.316;2022-11-13T04:13:32;15.03;;;10.40;;
6089;SDS011;3073;42.660;23.316;2022-11-13T04:15:59;15.53;;;11.00;;
6089;SDS011;3073;42.660;23.316;2022-11-13T04:18:26;17.87;;;11.90;;
6089;SDS011;3073;42.660;23.316;2022-11-13T04:20:57;19.93;;;12.50;;
6089;SDS011;3073;42.660;23.316;2022-11-13T04:23:25;14.43;;;10.23;;
6089;SDS011;3073;42.660;23.316;2022-11-13T04:25:52;20.40;;;12.20;;
6089;SDS011;3073;42.660;23.316;2022-11-13T04:28:19;16.60;;;11.40;;
6089;SDS011;3073;42.660;23.316;2022-11-13T04:30:47;18.20;;;12.20;;
6089;SDS011;3073;42.660;23.316;2022-11-13T04:33:15;18.90;;;12.40;;
6089;SDS011;3073;42.660;23.316;2022-11-13T04:35:41;18.97;;;11.90;;
6089;SDS011;3073;42.660;23.316;2022-11-13T04:38:10;22.57;;;12.07;;
6089;SDS011;3073;42.660;23.316;2022-11-13T04:40:38;23.43;;;12.83;;
6089;SDS011;3073;42.660;23.316;2022-11-13T04:43:06;18.60;;;12.83;;
6089;SDS011;3073;42.660;23.316;2022-11-13T04:45:32;20.80;;;14.37;;
6089;SDS011;3073;42.660;23.316;2022-11-13T04:48:00;20.80;;;13.60;;
6089;SDS011;3073;42.660;23.316;2022-11-13T04:50:27;20.83;;;13.23;;
6089;SDS011;3073;42.660;23.316;2022-11-13T04:52:55;19.30;;;13.90;;
6089;SDS011;3073;42.660;23.316;2022-11-13T04:55:22;26.33;;;14.00;;
6089;SDS011;3073;42.660;23.316;2022-11-13T04:57:52;21.13;;;13.90;;
6089;SDS011;3073;42.660;23.316;2022-11-13T05:00:20;25.00;;;15.27;;
6089;SDS011;3073;42.660;23.316;2022-11-13T05:02:47;26.03;;;15.67;;
6089;SDS011;3073;42.660;23.316;2022-11-13T05:05:13;23.80;;;13.93;;
6089;SDS011;3073;42.660;23.316;2022-11-13T05:07:40;31.53;;;16.67;;
6089;SDS011;3073;42.660;23.316;2022-11-13T05:10:07;22.80;;;15.17;;
6089;SDS011;3073;42.660;23.316;2022-11-13T05:12:34;27.70;;;15.20;;
6089;SDS011;3073;42.660;23.316;2022-11-13T05:15:03;24.77;;;15.50;;
6089;SDS011;3073;42.660;23.316;2022-11-13T05:17:31;30.90;;;18.83;;
6089;SDS011;3073;42.660;23.316;2022-11-13T05:19:58;29.40;;;17.33;;
6089;SDS011;3073;42.660;23.316;2022-11-13T05:22:24;27.67;;;17.27;;
6089;SDS011;3073;42.660;23.316;2022-11-13T05:24:51;28.03;;;17.67;;
6089;SDS011;3073;42.660;23.316;2022-11-13T05:27:18;35.53;;;18.10;;
6089;SDS011;3073;42.660;23.316;2022-11-13T05:29:45;27.83;;;16.90;;
6089;SDS011;3073;42.660;23.316;2022-11-13T05:32:13;28.00;;;17.70;;
6089;SDS011;3073;42.660;23.316;2022-11-13T05:34:40;31.83;;;18.30;;
6089;SDS011;3073;42.660;23.316;2022-11-13T05:37:07;30.50;;;16.60;;
6089;SDS011;3073;42.660;23.316;2022-11-13T05:39:34;37.43;;;19.50;;
6089;SDS011;3073;42.660;23.316;2022-11-13T05:42:01;26.03;;;16.80;;
6089;SDS011;3073;42.660;23.316;2022-11-13T05:44:28;29.37;;;17.87;;
6089;SDS011;3073;42.660;23.316;2022-11-13T05:46:55;30.50;;;18.17;;
6089;SDS011;3073;42.660;23.316;2022-11-13T05:49:23;27.90;;;17.43;;
6089;SDS011;3073;42.660;23.316;2022-11-13T05:51:50;26.37;;;17.53;;
6089;SDS011;3073;42.660;23.316;2022-11-13T05:54:20;35.83;;;19.37;;
6089;SDS011;3073;42.660;23.316;2022-11-13T05:56:47;30.93;;;19.00;;
6089;SDS011;3073;42.660;23.316;2022-11-13T05:59:14;29.80;;;17.10;;
6089;SDS011;3073;42.660;23.316;2022-11-13T06:01:41;27.80;;;15.73;;
6089;SDS011;3073;42.660;23.316;2022-11-13T06:04:08;30.57;;;18.20;;
6089;SDS011;3073;42.660;23.316;2022-11-13T06:06:37;26.33;;;16.50;;
6089;SDS011;3073;42.660;23.316;2022-11-13T06:09:04;24.07;;;15.80;;
6089;SDS011;3073;42.660;23.316;2022-11-13T06:11:32;29.33;;;18.37;;
6089;SDS011;3073;42.660;23.316;2022-11-13T06:13:59;25.00;;;15.90;;
6089;SDS011;3073;42.660;23.316;2022-11-13T06:16:27;26.40;;;16.03;;
6089;SDS011;3073;42.660;23.316;2022-11-13T06:18:54;25.50;;;15.87;;
6089;SDS011;3073;42.660;23.316;2022-11-13T06:21:24;29.20;;;17.97;;
6089;SDS011;3073;42.660;23.316;2022-11-13T06:23:56;31.10;;;18.17;;
6089;SDS011;3073;42.660;23.316;2022-11-13T06:26:24;24.60;;;16.60;;
6089;SDS011;3073;42.660;23.316;2022-11-13T06:28:52;31.83;;;19.50;;
6089;SDS011;3073;42.660;23.316;2022-11-13T06:31:20;24.70;;;16.10;;
6089;SDS011;3073;42.660;23.316;2022-11-13T06:33:48;26.07;;;16.77;;
6089;SDS011;3073;42.660;23.316;2022-11-13T06:36:16;31.23;;;18.60;;
6089;SDS011;3073;42.660;23.316;2022-11-13T06:38:45;25.13;;;16.60;;
6089;SDS011;3073;42.660;23.316;2022-11-13T06:41:16;26.70;;;17.23;;
6089;SDS011;3073;42.660;23.316;2022-11-13T06:43:45;27.80;;;16.57;;
6089;SDS011;3073;42.660;23.316;2022-11-13T06:46:13;27.93;;;17.90;;
6089;SDS011;3073;42.660;23.316;2022-11-13T06:48:41;30.80;;;17.07;;
6089;SDS011;3073;42.660;23.316;2022-11-13T06:51:09;26.60;;;17.27;;
6089;SDS011;3073;42.660;23.316;2022-11-13T06:53:39;25.37;;;16.07;;
6089;SDS011;3073;42.660;23.316;2022-11-13T06:56:06;28.83;;;17.90;;
6089;SDS011;3073;42.660;23.316;2022-11-13T06:58:35;21.60;;;14.53;;
6089;SDS011;3073;42.660;23.316;2022-11-13T07:01:05;31.40;;;17.10;;
6089;SDS011;3073;42.660;23.316;2022-11-13T07:03:32;29.53;;;16.60;;
6089;SDS011;3073;42.660;23.316;2022-11-13T07:06:00;29.50;;;16.57;;
6089;SDS011;3073;42.660;23.316;2022-11-13T07:08:28;43.07;;;17.00;;
6089;SDS011;3073;42.660;23.316;2022-11-13T07:10:56;35.10;;;18.53;;
6089;SDS011;3073;42.660;23.316;2022-11-13T07:13:24;32.77;;;18.10;;
6089;SDS011;3073;42.660;23.316;2022-11-13T07:15:53;27.93;;;16.97;;
6089;SDS011;3073;42.660;23.316;2022-11-13T07:18:20;27.90;;;17.70;;
6089;SDS011;3073;42.660;23.316;2022-11-13T07:20:47;26.13;;;16.70;;
6089;SDS011;3073;42.660;23.316;2022-11-13T07:23:15;30.93;;;16.17;;
6089;SDS011;3073;42.660;23.316;2022-11-13T07:25:42;30.50;;;17.47;;
6089;SDS011;3073;42.660;23.316;2022-11-13T07:28:09;24.57;;;15.40;;
6089;SDS011;3073;42.660;23.316;2022-11-13T07:30:36;26.57;;;15.70;;
6089;SDS011;3073;42.660;23.316;2022-11-13T07:33:04;23.67;;;15.80;;
6089;SDS011;3073;42.660;23.316;2022-11-13T07:35:31;28.30;;;15.97;;
6089;SDS011;3073;42.660;23.316;2022-11-13T07:37:58;23.90;;;15.50;;
6089;SDS011;3073;42.660;23.316;2022-11-13T07:40:25;28.13;;;16.50;;
6089;SDS011;3073;42.660;23.316;2022-11-13T07:42:55;28.90;;;15.67;;
6089;SDS011;3073;42.660;23.316;2022-11-13T07:45:24;26.77;;;16.30;;
6089;SDS011;3073;42.660;23.316;2022-11-13T07:47:56;31.30;;;17.90;;
6089;SDS011;3073;42.660;23.316;2022-11-13T07:50:25;29.57;;;16.20;;
6089;SDS011;3073;42.660;23.316;2022-11-13T07:52:55;34.60;;;18.30;;
6089;SDS011;3073;42.660;23.316;2022-11-13T07:55:23;27.40;;;15.30;;
6089;SDS011;3073;42.660;23.316;2022-11-13T07:57:50;30.63;;;18.37;;
6089;SDS011;3073;42.660;23.316;2022-11-13T08:00:17;26.40;;;17.10;;
6089;SDS011;3073;42.660;23.316;2022-11-13T08:02:44;26.73;;;15.93;;
6089;SDS011;3073;42.660;23.316;2022-11-13T08:05:12;24.20;;;16.93;;
6089;SDS011;3073;42.660;23.316;2022-11-13T08:07:41;34.73;;;18.57;;
6089;SDS011;3073;42.660;23.316;2022-11-13T08:10:08;32.03;;;18.60;;
6089;SDS011;3073;42.660;23.316;2022-11-13T08:12:36;26.23;;;15.73;;
6089;SDS011;3073;42.660;23.316;2022-11-13T08:15:04;29.20;;;16.77;;
6089;SDS011;3073;42.660;23.316;2022-11-13T08:17:31;26.80;;;16.43;;
6089;SDS011;3073;42.660;23.316;2022-11-13T08:19:59;29.07;;;17.80;;
6089;SDS011;3073;42.660;23.316;2022-11-13T08:22:26;26.43;;;17.20;;
6089;SDS011;3073;42.660;23.316;2022-11-13T08:24:54;32.00;;;18.33;;
6089;SDS011;3073;42.660;23.316;2022-11-13T08:27:22;29.70;;;17.30;;
6089;SDS011;3073;42.660;23.316;2022-11-13T08:29:49;27.13;;;18.00;;
6089;SDS011;3073;42.660;23.316;2022-11-13T08:32:17;28.70;;;16.77;;
6089;SDS011;3073;42.660;23.316;2022-11-13T08:34:46;30.07;;;18.77;;
6089;SDS011;3073;42.660;23.316;2022-11-13T08:37:13;33.67;;;18.30;;
6089;SDS011;3073;42.660;23.316;2022-11-13T08:39:41;26.63;;;17.20;;
6089;SDS011;3073;42.660;23.316;2022-11-13T08:42:09;31.07;;;18.47;;
6089;SDS011;3073;42.660;23.316;2022-11-13T08:44:36;30.50;;;18.70;;
6089;SDS011;3073;42.660;23.316;2022-11-13T08:47:03;29.27;;;18.80;;
6089;SDS011;3073;42.660;23.316;2022-11-13T08:49:30;25.87;;;17.10;;
6089;SDS011;3073;42.660;23.316;2022-11-13T08:51:57;28.80;;;17.37;;
6089;SDS011;3073;42.660;23.316;2022-11-13T08:54:31;30.27;;;17.43;;
6089;SDS011;3073;42.660;23.316;2022-11-13T08:57:03;27.43;;;17.77;;
6089;SDS011;3073;42.660;23.316;2022-11-13T08:59:41;32.10;;;18.30;;
6089;SDS011;3073;42.660;23.316;2022-11-13T09:02:08;29.20;;;20.33;;
6089;SDS011;3073;42.660;23.316;2022-11-13T09:04:39;26.30;;;19.73;;
6089;SDS011;3073;42.660;23.316;2022-11-13T09:07:05;26.20;;;18.40;;
6089;SDS011;3073;42.660;23.316;2022-11-13T09:09:32;28.53;;;18.67;;
6089;SDS011;3073;42.660;23.316;2022-11-13T09:12:00;27.20;;;19.13;;
6089;SDS011;3073;42.660;23.316;2022-11-13T09:14:27;34.10;;;22.53;;
6089;SDS011;3073;42.660;23.316;2022-11-13T09:16:56;29.57;;;20.20;;
6089;SDS011;3073;42.660;23.316;2022-11-13T09:19:22;29.70;;;18.83;;
6089;SDS011;3073;42.660;23.316;2022-11-13T09:21:49;27.93;;;19.03;;
6089;SDS011;3073;42.660;23.316;2022-11-13T09:24:17;30.80;;;19.20;;
6089;SDS011;3073;42.660;23.316;2022-11-13T09:26:43;32.90;;;19.53;;
6089;SDS011;3073;42.660;23.316;2022-11-13T09:29:11;30.87;;;19.50;;
6089;SDS011;3073;42.660;23.316;2022-11-13T09:31:37;29.60;;;20.10;;
6089;SDS011;3073;42.660;23.316;2022-11-13T09:34:06;26.07;;;18.13;;
6089;SDS011;3073;42.660;23.316;2022-11-13T09:36:33;32.83;;;20.83;;
6089;SDS011;3073;42.660;23.316;2022-11-13T09:39:00;24.90;;;17.27;;
6089;SDS011;3073;42.660;23.316;2022-11-13T09:41:28;23.80;;;17.93;;
6089;SDS011;3073;42.660;23.316;2022-11-13T09:43:59;29.83;;;17.37;;
6089;SDS011;3073;42.660;23.316;2022-11-13T09:46:33;27.50;;;17.93;;
6089;SDS011;3073;42.660;23.316;2022-11-13T09:49:05;29.50;;;18.97;;
6089;SDS011;3073;42.660;23.316;2022-11-13T09:51:41;29.80;;;17.37;;
6089;SDS011;3073;42.660;23.316;2022-11-13T09:54:15;32.53;;;17.57;;
6089;SDS011;3073;42.660;23.316;2022-11-13T09:56:43;26.20;;;18.73;;
6089;SDS011;3073;42.660;23.316;2022-11-13T09:59:19;25.93;;;17.60;;
6089;SDS011;3073;42.660;23.316;2022-11-13T10:01:54;32.53;;;19.50;;
6089;SDS011;3073;42.660;23.316;2022-11-13T10:04:32;32.93;;;18.80;;
6089;SDS011;3073;42.660;23.316;2022-11-13T10:07:10;29.87;;;18.67;;
6089;SDS011;3073;42.660;23.316;2022-11-13T10:09:53;23.47;;;17.23;;
6089;SDS011;3073;42.660;23.316;2022-11-13T10:12:27;30.50;;;20.30;;
6089;SDS011;3073;42.660;23.316;2022-11-13T10:14:59;25.50;;;17.67;;
6089;SDS011;3073;42.660;23.316;2022-11-13T10:17:30;34.57;;;19.37;;
6089;SDS011;3073;42.660;23.316;2022-11-13T10:20:04;27.80;;;18.30;;
6089;SDS011;3073;42.660;23.316;2022-11-13T10:22:39;30.40;;;19.17;;
6089;SDS011;3073;42.660;23.316;2022-11-13T10:25:11;31.80;;;21.57;;
6089;SDS011;3073;42.660;23.316;2022-11-13T10:27:40;31.70;;;20.07;;
6089;SDS011;3073;42.660;23.316;2022-11-13T10:33:29;27.90;;;17.50;;
6089;SDS011;3073;42.660;23.316;2022-11-13T10:36:00;28.63;;;18.00;;
6089;SDS011;3073;42.660;23.316;2022-11-13T10:38:35;31.87;;;20.53;;
6089;SDS011;3073;42.660;23.316;2022-11-13T10:41:11;31.63;;;20.43;;
6089;SDS011;3073;42.660;23.316;2022-11-13T10:43:49;32.10;;;19.33;;
6089;SDS011;3073;42.660;23.316;2022-11-13T10:46:18;32.70;;;19.87;;
6089;SDS011;3073;42.660;23.316;2022-11-13T10:48:46;33.83;;;22.07;;
6089;SDS011;3073;42.660;23.316;2022-11-13T10:51:22;28.77;;;19.13;;
6089;SDS011;3073;42.660;23.316;2022-11-13T10:53:51;36.57;;;21.47;;
6089;SDS011;3073;42.660;23.316;2022-11-13T10:56:20;31.47;;;21.37;;
6089;SDS011;3073;42.660;23.316;2022-11-13T10:59:00;29.47;;;19.37;;
6089;SDS011;3073;42.660;23.316;2022-11-13T11:01:29;26.40;;;18.77;;
6089;SDS011;3073;42.660;23.316;2022-11-13T11:03:57;28.80;;;19.17;;
6089;SDS011;3073;42.660;23.316;2022-11-13T11:06:32;29.80;;;17.70;;
6089;SDS011;3073;42.660;23.316;2022-11-13T11:09:04;31.77;;;18.43;;
6089;SDS011;3073;42.660;23.316;2022-11-13T11:11:33;26.87;;;17.97;;
6089;SDS011;3073;42.660;23.316;2022-11-13T11:14:18;23.17;;;16.43;;
6089;SDS011;3073;42.660;23.316;2022-11-13T11:16:48;27.40;;;19.20;;
6089;SDS011;3073;42.660;23.316;2022-11-13T11:19:18;29.57;;;18.83;;
6089;SDS011;3073;42.660;23.316;2022-11-13T11:21:54;32.73;;;19.83;;
6089;SDS011;3073;42.660;23.316;2022-11-13T11:24:28;25.83;;;17.13;;
6089;SDS011;3073;42.660;23.316;2022-11-13T11:27:00;27.60;;;18.63;;
6089;SDS011;3073;42.660;23.316;2022-11-13T11:29:32;30.73;;;19.93;;
6089;SDS011;3073;42.660;23.316;2022-11-13T11:32:05;28.57;;;18.80;;
6089;SDS011;3073;42.660;23.316;2022-11-13T11:34:38;32.60;;;21.50;;
6089;SDS011;3073;42.660;23.316;2022-11-13T11:37:13;40.17;;;23.53;;
6089;SDS011;3073;42.660;23.316;2022-11-13T11:39:42;28.70;;;20.00;;
6089;SDS011;3073;42.660;23.316;2022-11-13T11:42:19;27.97;;;19.03;;
6089;SDS011;3073;42.660;23.316;2022-11-13T11:44:56;31.70;;;19.60;;
6089;SDS011;3073;42.660;23.316;2022-11-13T11:47:29;29.30;;;18.10;;
6089;SDS011;3073;42.660;23.316;2022-11-13T11:49:57;29.03;;;19.20;;
6089;SDS011;3073;42.660;23.316;2022-11-13T11:52:39;26.40;;;18.07;;
6089;SDS011;3073;42.660;23.316;2022-11-13T11:55:22;27.50;;;18.30;;
6089;SDS011;3073;42.660;23.316;2022-11-13T11:58:03;28.63;;;19.00;;
6089;SDS011;3073;42.660;23.316;2022-11-13T12:00:42;39.37;;;21.83;;
6089;SDS011;3073;42.660;23.316;2022-11-13T12:06:19;32.70;;;20.73;;
6089;SDS011;3073;42.660;23.316;2022-11-13T12:08:58;31.70;;;20.60;;
6089;SDS011;3073;42.660;23.316;2022-11-13T12:11:32;33.53;;;21.87;;
6089;SDS011;3073;42.660;23.316;2022-11-13T12:14:02;29.40;;;19.10;;
6089;SDS011;3073;42.660;23.316;2022-11-13T12:16:39;34.37;;;22.47;;
6089;SDS011;3073;42.660;23.316;2022-11-13T12:19:15;30.17;;;18.90;;
6089;SDS011;3073;42.660;23.316;2022-11-13T12:21:53;29.80;;;19.73;;
6089;SDS011;3073;42.660;23.316;2022-11-13T12:24:36;30.30;;;20.10;;
6089;SDS011;3073;42.660;23.316;2022-11-13T12:27:19;34.90;;;21.03;;
6089;SDS011;3073;42.660;23.316;2022-11-13T12:29:58;32.87;;;21.80;;
6089;SDS011;3073;42.660;23.316;2022-11-13T12:32:45;30.33;;;20.10;;
6089;SDS011;3073;42.660;23.316;2022-11-13T12:35:24;30.70;;;20.47;;
6089;SDS011;3073;42.660;23.316;2022-11-13T12:37:54;31.80;;;19.23;;
6089;SDS011;3073;42.660;23.316;2022-11-13T12:40:27;39.40;;;22.10;;
6089;SDS011;3073;42.660;23.316;2022-11-13T12:43:05;29.43;;;18.77;;
6089;SDS011;3073;42.660;23.316;2022-11-13T12:45:48;31.20;;;20.60;;
6089;SDS011;3073;42.660;23.316;2022-11-13T12:48:25;32.07;;;20.33;;
6089;SDS011;3073;42.660;23.316;2022-11-13T12:50:57;30.13;;;20.33;;
6089;SDS011;3073;42.660;23.316;2022-11-13T12:53:26;36.03;;;19.50;;
6089;SDS011;3073;42.660;23.316;2022-11-13T12:55:56;24.87;;;16.90;;
6089;SDS011;3073;42.660;23.316;2022-11-13T12:58:26;24.37;;;16.53;;
6089;SDS011;3073;42.660;23.316;2022-11-13T13:00:56;34.63;;;22.57;;
6089;SDS011;3073;42.660;23.316;2022-11-13T13:03:37;32.30;;;19.97;;
6089;SDS011;3073;42.660;23.316;2022-11-13T13:06:21;26.23;;;17.43;;
6089;SDS011;3073;42.660;23.316;2022-11-13T13:09:14;24.90;;;17.20;;
6089;SDS011;3073;42.660;23.316;2022-11-13T13:11:55;26.47;;;17.60;;
6089;SDS011;3073;42.660;23.316;2022-11-13T13:14:52;31.70;;;17.47;;
6089;SDS011;3073;42.660;23.316;2022-11-13T13:17:32;25.53;;;17.23;;
6089;SDS011;3073;42.660;23.316;2022-11-13T13:19:59;28.93;;;17.10;;
6089;SDS011;3073;42.660;23.316;2022-11-13T13:22:29;27.53;;;18.43;;
6089;SDS011;3073;42.660;23.316;2022-11-13T13:24:58;29.37;;;18.57;;
6089;SDS011;3073;42.660;23.316;2022-11-13T13:27:35;23.57;;;16.63;;
6089;SDS011;3073;42.660;23.316;2022-11-13T13:30:16;23.40;;;16.93;;
6089;SDS011;3073;42.660;23.316;2022-11-13T13:32:48;29.50;;;17.00;;
6089;SDS011;3073;42.660;23.316;2022-11-13T13:35:25;21.27;;;15.87;;
6089;SDS011;3073;42.660;23.316;2022-11-13T13:38:00;22.97;;;16.20;;
6089;SDS011;3073;42.660;23.316;2022-11-13T13:40:36;26.30;;;18.03;;
6089;SDS011;3073;42.660;23.316;2022-11-13T13:43:21;21.87;;;15.63;;
6089;SDS011;3073;42.660;23.316;2022-11-13T13:46:00;23.83;;;15.40;;
6089;SDS011;3073;42.660;23.316;2022-11-13T13:48:36;25.60;;;17.73;;
6089;SDS011;3073;42.660;23.316;2022-11-13T13:51:08;24.50;;;16.77;;
6089;SDS011;3073;42.660;23.316;2022-11-13T13:53:41;24.47;;;17.57;;
6089;SDS011;3073;42.660;23.316;2022-11-13T13:56:09;22.70;;;16.80;;
6089;SDS011;3073;42.660;23.316;2022-11-13T13:58:39;22.93;;;16.87;;
6089;SDS011;3073;42.660;23.316;2022-11-13T14:01:11;24.57;;;17.20;;
6089;SDS011;3073;42.660;23.316;2022-11-13T14:03:39;24.73;;;16.57;;
6089;SDS011;3073;42.660;23.316;2022-11-13T14:06:07;26.50;;;17.40;;
6089;SDS011;3073;42.660;23.316;2022-11-13T14:08:35;24.00;;;17.00;;
6089;SDS011;3073;42.660;23.316;2022-11-13T14:11:02;22.97;;;16.70;;
6089;SDS011;3073;42.660;23.316;2022-11-13T14:13:43;29.07;;;17.37;;
6089;SDS011;3073;42.660;23.316;2022-11-13T14:16:11;23.10;;;15.80;;
6089;SDS011;3073;42.660;23.316;2022-11-13T14:18:38;26.77;;;17.40;;
6089;SDS011;3073;42.660;23.316;2022-11-13T14:21:08;24.03;;;17.70;;
6089;SDS011;3073;42.660;23.316;2022-11-13T14:23:41;25.43;;;17.43;;
6089;SDS011;3073;42.660;23.316;2022-11-13T14:26:10;29.03;;;17.50;;
6089;SDS011;3073;42.660;23.316;2022-11-13T14:28:43;29.40;;;18.43;;
6089;SDS011;3073;42.660;23.316;2022-11-13T14:31:23;27.13;;;18.17;;
6089;SDS011;3073;42.660;23.316;2022-11-13T14:33:53;24.80;;;18.50;;
6089;SDS011;3073;42.660;23.316;2022-11-13T14:36:24;30.57;;;21.27;;
6089;SDS011;3073;42.660;23.316;2022-11-13T14:38:54;37.43;;;19.87;;
6089;SDS011;3073;42.660;23.316;2022-11-13T14:41:22;30.43;;;19.43;;
6089;SDS011;3073;42.660;23.316;2022-11-13T14:43:55;32.67;;;21.10;;
6089;SDS011;3073;42.660;23.316;2022-11-13T14:46:26;34.50;;;22.53;;
6089;SDS011;3073;42.660;23.316;2022-11-13T14:48:55;36.07;;;23.80;;
6089;SDS011;3073;42.660;23.316;2022-11-13T14:51:23;38.93;;;24.93;;
6089;SDS011;3073;42.660;23.316;2022-11-13T14:53:56;40.50;;;23.53;;
6089;SDS011;3073;42.660;23.316;2022-11-13T14:56:31;49.33;;;25.80;;
6089;SDS011;3073;42.660;23.316;2022-11-13T14:59:07;40.43;;;23.83;;
6089;SDS011;3073;42.660;23.316;2022-11-13T15:01:36;38.30;;;21.93;;